sensor_id;sensor_type;location;lat;lon;timestamp;P1;durP1;ratioP1;P2;durP2;ratioP2
13979;SDS011;73871;49.900;8.594;2024-01-06T00:02:23;5.70;;;2.60;;
13979;SDS011;73871;49.900;8.594;2024-01-06T00:04:50;6.90;;;2.87;;
13979;SDS011;73871;49.900;8.594;2024-01-06T00:07:16;6.97;;;2.83;;
13979;SDS011;73871;49.900;8.594;2024-01-06T00:09:43;5.30;;;2.00;;
13979;SDS011;73871;49.900;8.594;2024-01-06T00:12:10;7.23;;;2.40;;
13979;SDS011;73871;49.900;8.594;2024-01-06T00:14:37;4.80;;;2.43;;
13979;SDS011;73871;49.900;8.594;2024-01-06T00:17:03;5.00;;;2.63;;
13979;SDS011;73871;49.900;8.594;2024-01-06T00:19:30;5.47;;;2.73;;
13979;SDS011;73871;49.900;8.594;2024-01-06T00:21:57;4.03;;;2.60;;
13979;SDS011;73871;49.900;8.594;2024-01-06T00:24:24;8.43;;;2.50;;
13979;SDS011;73871;49.900;8.594;2024-01-06T00:26:50;6.33;;;2.87;;
13979;SDS011;73871;49.900;8.594;2024-01-06T00:29:17;3.47;;;2.37;;
13979;SDS011;73871;49.900;8.594;2024-01-06T00:31:44;6.60;;;2.70;;
13979;SDS011;73871;49.900;8.594;2024-01-06T00:34:11;5.07;;;2.60;;
13979;SDS011;73871;49.900;8.594;2024-01-06T00:36:38;6.07;;;2.67;;
13979;SDS011;73871;49.900;8.594;2024-01-06T00:39:04;4.43;;;2.43;;
13979;SDS011;73871;49.900;8.594;2024-01-06T00:41:31;5.70;;;2.67;;
13979;SDS011;73871;49.900;8.594;2024-01-06T00:43:58;4.03;;;2.50;;
13979;SDS011;73871;49.900;8.594;2024-01-06T00:46:25;6.37;;;3.10;;
13979;SDS011;73871;49.900;8.594;2024-01-06T00:48:56;6.33;;;2.83;;
13979;SDS011;73871;49.900;8.594;2024-01-06T00:51:23;3.43;;;2.13;;
13979;SDS011;73871;49.900;8.594;2024-01-06T00:53:50;4.87;;;2.13;;
13979;SDS011;73871;49.900;8.594;2024-01-06T00:56:18;6.67;;;2.57;;
13979;SDS011;73871;49.900;8.594;2024-01-06T00:58:45;4.43;;;2.30;;
13979;SDS011;73871;49.900;8.594;2024-01-06T01:01:12;4.80;;;2.10;;
13979;SDS011;73871;49.900;8.594;2024-01-06T01:03:39;3.90;;;2.00;;
13979;SDS011;73871;49.900;8.594;2024-01-06T01:06:06;5.67;;;2.20;;
13979;SDS011;73871;49.900;8.594;2024-01-06T01:08:34;5.60;;;2.50;;
13979;SDS011;73871;49.900;8.594;2024-01-06T01:11:01;6.17;;;2.33;;
13979;SDS011;73871;49.900;8.594;2024-01-06T01:13:28;5.43;;;2.10;;
13979;SDS011;73871;49.900;8.594;2024-01-06T01:15:55;5.00;;;2.80;;
13979;SDS011;73871;49.900;8.594;2024-01-06T01:18:22;7.83;;;2.60;;
13979;SDS011;73871;49.900;8.594;2024-01-06T01:20:49;6.43;;;2.63;;
13979;SDS011;73871;49.900;8.594;2024-01-06T01:23:16;7.13;;;2.40;;
13979;SDS011;73871;49.900;8.594;2024-01-06T01:25:43;5.20;;;2.77;;
13979;SDS011;73871;49.900;8.594;2024-01-06T01:28:09;4.10;;;1.93;;
13979;SDS011;73871;49.900;8.594;2024-01-06T01:30:36;6.57;;;2.50;;
13979;SDS011;73871;49.900;8.594;2024-01-06T01:33:03;4.77;;;2.23;;
13979;SDS011;73871;49.900;8.594;2024-01-06T01:35:30;7.93;;;2.53;;
13979;SDS011;73871;49.900;8.594;2024-01-06T01:37:57;6.10;;;2.43;;
13979;SDS011;73871;49.900;8.594;2024-01-06T01:40:24;6.00;;;2.40;;
13979;SDS011;73871;49.900;8.594;2024-01-06T01:42:51;8.37;;;3.00;;
13979;SDS011;73871;49.900;8.594;2024-01-06T01:45:17;4.23;;;2.17;;
13979;SDS011;73871;49.900;8.594;2024-01-06T01:47:44;2.40;;;1.77;;
13979;SDS011;73871;49.900;8.594;2024-01-06T01:50:12;5.40;;;2.27;;
13979;SDS011;73871;49.900;8.594;2024-01-06T01:52:42;3.70;;;2.47;;
13979;SDS011;73871;49.900;8.594;2024-01-06T01:55:09;7.63;;;3.17;;
13979;SDS011;73871;49.900;8.594;2024-01-06T01:57:36;7.30;;;2.57;;
13979;SDS011;73871;49.900;8.594;2024-01-06T02:00:03;4.03;;;2.00;;
13979;SDS011;73871;49.900;8.594;2024-01-06T02:02:37;6.63;;;2.63;;
13979;SDS011;73871;49.900;8.594;2024-01-06T02:05:04;6.13;;;3.07;;
13979;SDS011;73871;49.900;8.594;2024-01-06T02:07:31;5.00;;;2.47;;
13979;SDS011;73871;49.900;8.594;2024-01-06T02:09:58;5.80;;;2.57;;
13979;SDS011;73871;49.900;8.594;2024-01-06T02:12:24;5.23;;;2.10;;
13979;SDS011;73871;49.900;8.594;2024-01-06T02:14:51;4.67;;;2.30;;
13979;SDS011;73871;49.900;8.594;2024-01-06T02:17:18;4.90;;;2.20;;
13979;SDS011;73871;49.900;8.594;2024-01-06T02:19:45;4.90;;;2.20;;
13979;SDS011;73871;49.900;8.594;2024-01-06T02:22:13;4.37;;;2.43;;
13979;SDS011;73871;49.900;8.594;2024-01-06T02:24:39;8.50;;;2.77;;
13979;SDS011;73871;49.900;8.594;2024-01-06T02:27:06;6.40;;;2.60;;
13979;SDS011;73871;49.900;8.594;2024-01-06T02:29:33;5.30;;;2.30;;
13979;SDS011;73871;49.900;8.594;2024-01-06T02:31:59;8.17;;;2.90;;
13979;SDS011;73871;49.900;8.594;2024-01-06T02:34:26;6.93;;;2.43;;
13979;SDS011;73871;49.900;8.594;2024-01-06T02:36:53;5.53;;;2.43;;
13979;SDS011;73871;49.900;8.594;2024-01-06T02:39:20;5.90;;;2.47;;
13979;SDS011;73871;49.900;8.594;2024-01-06T02:41:49;4.80;;;2.50;;
13979;SDS011;73871;49.900;8.594;2024-01-06T02:44:19;6.03;;;2.57;;
13979;SDS011;73871;49.900;8.594;2024-01-06T02:46:45;6.47;;;2.80;;
13979;SDS011;73871;49.900;8.594;2024-01-06T02:49:12;4.60;;;2.50;;
13979;SDS011;73871;49.900;8.594;2024-01-06T02:51:39;6.57;;;2.13;;
13979;SDS011;73871;49.900;8.594;2024-01-06T02:54:06;6.33;;;2.53;;
13979;SDS011;73871;49.900;8.594;2024-01-06T02:56:33;4.33;;;2.37;;
13979;SDS011;73871;49.900;8.594;2024-01-06T02:58:59;4.00;;;2.37;;
13979;SDS011;73871;49.900;8.594;2024-01-06T03:01:26;6.13;;;2.40;;
13979;SDS011;73871;49.900;8.594;2024-01-06T03:03:53;5.07;;;2.20;;
13979;SDS011;73871;49.900;8.594;2024-01-06T03:06:20;6.63;;;2.43;;
13979;SDS011;73871;49.900;8.594;2024-01-06T03:08:46;5.70;;;2.87;;
13979;SDS011;73871;49.900;8.594;2024-01-06T03:11:13;6.67;;;2.67;;
13979;SDS011;73871;49.900;8.594;2024-01-06T03:13:41;5.70;;;2.40;;
13979;SDS011;73871;49.900;8.594;2024-01-06T03:16:07;5.60;;;2.60;;
13979;SDS011;73871;49.900;8.594;2024-01-06T03:18:34;5.90;;;2.70;;
13979;SDS011;73871;49.900;8.594;2024-01-06T03:21:01;5.17;;;2.27;;
13979;SDS011;73871;49.900;8.594;2024-01-06T03:23:28;4.73;;;2.93;;
13979;SDS011;73871;49.900;8.594;2024-01-06T03:25:55;5.17;;;2.50;;
13979;SDS011;73871;49.900;8.594;2024-01-06T03:28:21;5.57;;;2.20;;
13979;SDS011;73871;49.900;8.594;2024-01-06T03:30:48;4.93;;;2.57;;
13979;SDS011;73871;49.900;8.594;2024-01-06T03:33:15;5.47;;;2.57;;
13979;SDS011;73871;49.900;8.594;2024-01-06T03:35:42;5.13;;;2.33;;
13979;SDS011;73871;49.900;8.594;2024-01-06T03:38:08;5.40;;;2.50;;
13979;SDS011;73871;49.900;8.594;2024-01-06T03:40:35;4.57;;;2.30;;
13979;SDS011;73871;49.900;8.594;2024-01-06T03:43:02;8.47;;;2.73;;
13979;SDS011;73871;49.900;8.594;2024-01-06T03:45:29;4.27;;;2.40;;
13979;SDS011;73871;49.900;8.594;2024-01-06T03:47:56;7.43;;;3.23;;
13979;SDS011;73871;49.900;8.594;2024-01-06T03:50:23;6.00;;;2.53;;
13979;SDS011;73871;49.900;8.594;2024-01-06T03:52:49;4.77;;;2.40;;
13979;SDS011;73871;49.900;8.594;2024-01-06T03:55:16;4.43;;;2.50;;
13979;SDS011;73871;49.900;8.594;2024-01-06T03:57:43;4.43;;;2.43;;
13979;SDS011;73871;49.900;8.594;2024-01-06T04:00:10;4.67;;;2.90;;
13979;SDS011;73871;49.900;8.594;2024-01-06T04:02:37;7.40;;;2.80;;
13979;SDS011;73871;49.900;8.594;2024-01-06T04:05:04;5.40;;;2.50;;
13979;SDS011;73871;49.900;8.594;2024-01-06T04:07:31;6.80;;;2.70;;
13979;SDS011;73871;49.900;8.594;2024-01-06T04:09:58;5.80;;;2.50;;
13979;SDS011;73871;49.900;8.594;2024-01-06T04:12:25;5.57;;;2.40;;
13979;SDS011;73871;49.900;8.594;2024-01-06T04:14:52;5.90;;;2.63;;
13979;SDS011;73871;49.900;8.594;2024-01-06T04:17:19;7.23;;;2.60;;
13979;SDS011;73871;49.900;8.594;2024-01-06T04:19:46;6.23;;;2.60;;
13979;SDS011;73871;49.900;8.594;2024-01-06T04:22:12;5.37;;;2.53;;
13979;SDS011;73871;49.900;8.594;2024-01-06T04:24:39;6.17;;;2.70;;
13979;SDS011;73871;49.900;8.594;2024-01-06T04:27:07;8.60;;;3.10;;
13979;SDS011;73871;49.900;8.594;2024-01-06T04:29:34;6.47;;;3.07;;
13979;SDS011;73871;49.900;8.594;2024-01-06T04:32:01;9.10;;;2.67;;
13979;SDS011;73871;49.900;8.594;2024-01-06T04:34:28;7.60;;;3.00;;
13979;SDS011;73871;49.900;8.594;2024-01-06T04:36:55;5.43;;;2.57;;
13979;SDS011;73871;49.900;8.594;2024-01-06T04:39:21;12.13;;;3.13;;
13979;SDS011;73871;49.900;8.594;2024-01-06T04:41:48;5.80;;;2.63;;
13979;SDS011;73871;49.900;8.594;2024-01-06T04:44:16;5.47;;;3.03;;
13979;SDS011;73871;49.900;8.594;2024-01-06T04:46:46;5.13;;;2.40;;
13979;SDS011;73871;49.900;8.594;2024-01-06T04:49:12;4.03;;;2.43;;
13979;SDS011;73871;49.900;8.594;2024-01-06T04:51:39;5.47;;;2.80;;
13979;SDS011;73871;49.900;8.594;2024-01-06T04:54:07;7.37;;;2.80;;
13979;SDS011;73871;49.900;8.594;2024-01-06T04:56:34;7.47;;;2.47;;
13979;SDS011;73871;49.900;8.594;2024-01-06T04:59:02;6.03;;;2.77;;
13979;SDS011;73871;49.900;8.594;2024-01-06T05:01:29;5.37;;;2.70;;
13979;SDS011;73871;49.900;8.594;2024-01-06T05:03:56;4.70;;;2.67;;
13979;SDS011;73871;49.900;8.594;2024-01-06T05:06:23;6.33;;;2.87;;
13979;SDS011;73871;49.900;8.594;2024-01-06T05:08:50;5.00;;;2.73;;
13979;SDS011;73871;49.900;8.594;2024-01-06T05:11:17;5.20;;;2.67;;
13979;SDS011;73871;49.900;8.594;2024-01-06T05:13:43;6.20;;;2.60;;
13979;SDS011;73871;49.900;8.594;2024-01-06T05:16:10;4.40;;;2.43;;
13979;SDS011;73871;49.900;8.594;2024-01-06T05:18:37;5.73;;;2.90;;
13979;SDS011;73871;49.900;8.594;2024-01-06T05:21:04;4.57;;;2.53;;
13979;SDS011;73871;49.900;8.594;2024-01-06T05:23:31;9.97;;;2.83;;
13979;SDS011;73871;49.900;8.594;2024-01-06T05:25:57;8.27;;;2.87;;
13979;SDS011;73871;49.900;8.594;2024-01-06T05:28:24;3.73;;;2.50;;
13979;SDS011;73871;49.900;8.594;2024-01-06T05:30:51;6.67;;;2.73;;
13979;SDS011;73871;49.900;8.594;2024-01-06T05:33:18;5.53;;;2.93;;
13979;SDS011;73871;49.900;8.594;2024-01-06T05:35:45;4.17;;;2.50;;
13979;SDS011;73871;49.900;8.594;2024-01-06T05:38:11;5.13;;;2.40;;
13979;SDS011;73871;49.900;8.594;2024-01-06T05:40:38;6.63;;;2.70;;
13979;SDS011;73871;49.900;8.594;2024-01-06T05:43:05;4.03;;;2.43;;
13979;SDS011;73871;49.900;8.594;2024-01-06T05:45:32;5.23;;;2.43;;
13979;SDS011;73871;49.900;8.594;2024-01-06T05:47:59;6.97;;;2.63;;
13979;SDS011;73871;49.900;8.594;2024-01-06T05:50:26;5.77;;;2.80;;
13979;SDS011;73871;49.900;8.594;2024-01-06T05:52:53;4.63;;;2.77;;
13979;SDS011;73871;49.900;8.594;2024-01-06T05:55:21;3.57;;;2.43;;
13979;SDS011;73871;49.900;8.594;2024-01-06T05:57:47;5.20;;;2.40;;
13979;SDS011;73871;49.900;8.594;2024-01-06T06:00:14;6.73;;;3.50;;
13979;SDS011;73871;49.900;8.594;2024-01-06T06:02:41;6.60;;;2.83;;
13979;SDS011;73871;49.900;8.594;2024-01-06T06:05:08;4.67;;;2.23;;
13979;SDS011;73871;49.900;8.594;2024-01-06T06:07:35;6.50;;;2.77;;
13979;SDS011;73871;49.900;8.594;2024-01-06T06:10:06;4.50;;;2.80;;
13979;SDS011;73871;49.900;8.594;2024-01-06T06:12:34;7.13;;;2.87;;
13979;SDS011;73871;49.900;8.594;2024-01-06T06:15:02;5.70;;;2.57;;
13979;SDS011;73871;49.900;8.594;2024-01-06T06:17:30;5.37;;;3.20;;
13979;SDS011;73871;49.900;8.594;2024-01-06T06:19:57;5.37;;;3.50;;
13979;SDS011;73871;49.900;8.594;2024-01-06T06:22:25;5.33;;;3.20;;
13979;SDS011;73871;49.900;8.594;2024-01-06T06:24:56;5.27;;;2.70;;
13979;SDS011;73871;49.900;8.594;2024-01-06T06:27:23;7.63;;;3.37;;
13979;SDS011;73871;49.900;8.594;2024-01-06T06:29:50;6.67;;;3.03;;
13979;SDS011;73871;49.900;8.594;2024-01-06T06:32:17;5.93;;;2.63;;
13979;SDS011;73871;49.900;8.594;2024-01-06T06:34:44;3.97;;;3.10;;
13979;SDS011;73871;49.900;8.594;2024-01-06T06:37:11;6.10;;;3.00;;
13979;SDS011;73871;49.900;8.594;2024-01-06T06:39:38;4.07;;;2.93;;
13979;SDS011;73871;49.900;8.594;2024-01-06T06:42:05;3.97;;;2.97;;
13979;SDS011;73871;49.900;8.594;2024-01-06T06:44:32;5.73;;;3.20;;
13979;SDS011;73871;49.900;8.594;2024-01-06T06:46:58;5.53;;;3.23;;
13979;SDS011;73871;49.900;8.594;2024-01-06T06:49:26;5.83;;;3.63;;
13979;SDS011;73871;49.900;8.594;2024-01-06T06:51:53;5.73;;;3.20;;
13979;SDS011;73871;49.900;8.594;2024-01-06T06:54:22;7.40;;;3.43;;
13979;SDS011;73871;49.900;8.594;2024-01-06T06:56:49;6.33;;;3.57;;
13979;SDS011;73871;49.900;8.594;2024-01-06T06:59:15;4.67;;;3.27;;
13979;SDS011;73871;49.900;8.594;2024-01-06T07:01:42;6.33;;;3.17;;
13979;SDS011;73871;49.900;8.594;2024-01-06T07:04:09;6.20;;;3.63;;
13979;SDS011;73871;49.900;8.594;2024-01-06T07:06:36;4.53;;;3.20;;
13979;SDS011;73871;49.900;8.594;2024-01-06T07:09:03;5.83;;;3.40;;
13979;SDS011;73871;49.900;8.594;2024-01-06T07:11:31;5.80;;;3.50;;
13979;SDS011;73871;49.900;8.594;2024-01-06T07:13:58;8.23;;;3.80;;
13979;SDS011;73871;49.900;8.594;2024-01-06T07:16:24;5.30;;;3.30;;
13979;SDS011;73871;49.900;8.594;2024-01-06T07:18:51;4.93;;;3.30;;
13979;SDS011;73871;49.900;8.594;2024-01-06T07:21:18;6.87;;;3.57;;
13979;SDS011;73871;49.900;8.594;2024-01-06T07:23:45;5.67;;;3.63;;
13979;SDS011;73871;49.900;8.594;2024-01-06T07:26:12;6.67;;;3.87;;
13979;SDS011;73871;49.900;8.594;2024-01-06T07:28:39;6.10;;;3.40;;
13979;SDS011;73871;49.900;8.594;2024-01-06T07:31:05;6.83;;;3.87;;
13979;SDS011;73871;49.900;8.594;2024-01-06T07:33:33;4.70;;;3.67;;
13979;SDS011;73871;49.900;8.594;2024-01-06T07:35:59;5.93;;;4.10;;
13979;SDS011;73871;49.900;8.594;2024-01-06T07:38:27;5.20;;;4.07;;
13979;SDS011;73871;49.900;8.594;2024-01-06T07:40:54;7.70;;;4.20;;
13979;SDS011;73871;49.900;8.594;2024-01-06T07:43:21;7.03;;;4.03;;
13979;SDS011;73871;49.900;8.594;2024-01-06T07:45:47;4.83;;;3.67;;
13979;SDS011;73871;49.900;8.594;2024-01-06T07:48:15;6.70;;;4.23;;
13979;SDS011;73871;49.900;8.594;2024-01-06T07:50:42;6.83;;;3.47;;
13979;SDS011;73871;49.900;8.594;2024-01-06T07:53:09;6.50;;;4.00;;
13979;SDS011;73871;49.900;8.594;2024-01-06T07:55:36;6.80;;;3.73;;
13979;SDS011;73871;49.900;8.594;2024-01-06T07:58:04;6.17;;;4.27;;
13979;SDS011;73871;49.900;8.594;2024-01-06T08:00:30;5.60;;;3.57;;
13979;SDS011;73871;49.900;8.594;2024-01-06T08:02:57;6.37;;;4.00;;
13979;SDS011;73871;49.900;8.594;2024-01-06T08:05:24;7.37;;;4.33;;
13979;SDS011;73871;49.900;8.594;2024-01-06T08:07:51;6.00;;;3.90;;
13979;SDS011;73871;49.900;8.594;2024-01-06T08:10:18;6.07;;;3.60;;
13979;SDS011;73871;49.900;8.594;2024-01-06T08:12:45;4.40;;;4.00;;
13979;SDS011;73871;49.900;8.594;2024-01-06T08:15:12;6.93;;;3.90;;
13979;SDS011;73871;49.900;8.594;2024-01-06T08:17:38;7.67;;;4.10;;
13979;SDS011;73871;49.900;8.594;2024-01-06T08:20:07;6.07;;;3.60;;
13979;SDS011;73871;49.900;8.594;2024-01-06T08:22:34;5.87;;;3.70;;
13979;SDS011;73871;49.900;8.594;2024-01-06T08:25:01;7.87;;;4.43;;
13979;SDS011;73871;49.900;8.594;2024-01-06T08:27:29;8.37;;;4.30;;
13979;SDS011;73871;49.900;8.594;2024-01-06T08:29:56;7.70;;;4.10;;
13979;SDS011;73871;49.900;8.594;2024-01-06T08:32:23;6.10;;;3.60;;
13979;SDS011;73871;49.900;8.594;2024-01-06T08:34:49;5.90;;;3.67;;
13979;SDS011;73871;49.900;8.594;2024-01-06T08:37:17;8.13;;;4.37;;
13979;SDS011;73871;49.900;8.594;2024-01-06T08:39:43;7.60;;;4.47;;
13979;SDS011;73871;49.900;8.594;2024-01-06T08:42:10;7.97;;;4.77;;
13979;SDS011;73871;49.900;8.594;2024-01-06T08:44:37;6.73;;;4.47;;
13979;SDS011;73871;49.900;8.594;2024-01-06T08:47:04;7.23;;;4.50;;
13979;SDS011;73871;49.900;8.594;2024-01-06T08:49:31;6.33;;;5.00;;
13979;SDS011;73871;49.900;8.594;2024-01-06T08:51:58;6.43;;;4.70;;
13979;SDS011;73871;49.900;8.594;2024-01-06T08:54:25;8.90;;;4.20;;
13979;SDS011;73871;49.900;8.594;2024-01-06T08:56:52;12.13;;;4.93;;
13979;SDS011;73871;49.900;8.594;2024-01-06T08:59:19;8.87;;;4.80;;
13979;SDS011;73871;49.900;8.594;2024-01-06T09:01:46;10.20;;;4.73;;
13979;SDS011;73871;49.900;8.594;2024-01-06T09:04:15;7.40;;;4.30;;
13979;SDS011;73871;49.900;8.594;2024-01-06T09:06:42;4.57;;;4.17;;
13979;SDS011;73871;49.900;8.594;2024-01-06T09:09:09;9.70;;;5.03;;
13979;SDS011;73871;49.900;8.594;2024-01-06T09:11:37;7.33;;;4.50;;
13979;SDS011;73871;49.900;8.594;2024-01-06T09:14:04;7.40;;;4.63;;
13979;SDS011;73871;49.900;8.594;2024-01-06T09:16:30;6.03;;;4.20;;
13979;SDS011;73871;49.900;8.594;2024-01-06T09:18:57;7.43;;;5.10;;
13979;SDS011;73871;49.900;8.594;2024-01-06T09:21:24;5.97;;;4.27;;
13979;SDS011;73871;49.900;8.594;2024-01-06T09:23:52;6.80;;;4.90;;
13979;SDS011;73871;49.900;8.594;2024-01-06T09:26:19;5.70;;;4.50;;
13979;SDS011;73871;49.900;8.594;2024-01-06T09:28:46;6.33;;;4.50;;
13979;SDS011;73871;49.900;8.594;2024-01-06T09:31:13;6.37;;;4.43;;
13979;SDS011;73871;49.900;8.594;2024-01-06T09:33:40;6.33;;;4.60;;
13979;SDS011;73871;49.900;8.594;2024-01-06T09:36:07;7.63;;;5.30;;
13979;SDS011;73871;49.900;8.594;2024-01-06T09:38:38;7.47;;;5.00;;
13979;SDS011;73871;49.900;8.594;2024-01-06T09:41:04;7.37;;;5.07;;
13979;SDS011;73871;49.900;8.594;2024-01-06T09:43:31;9.50;;;5.57;;
13979;SDS011;73871;49.900;8.594;2024-01-06T09:46:06;8.73;;;5.43;;
13979;SDS011;73871;49.900;8.594;2024-01-06T09:48:46;7.90;;;4.70;;
13979;SDS011;73871;49.900;8.594;2024-01-06T09:51:16;8.87;;;6.13;;
13979;SDS011;73871;49.900;8.594;2024-01-06T09:53:49;8.33;;;5.10;;
13979;SDS011;73871;49.900;8.594;2024-01-06T09:56:23;6.73;;;5.67;;
13979;SDS011;73871;49.900;8.594;2024-01-06T09:58:51;11.50;;;5.73;;
13979;SDS011;73871;49.900;8.594;2024-01-06T10:01:18;6.37;;;5.50;;
13979;SDS011;73871;49.900;8.594;2024-01-06T10:03:45;8.17;;;5.60;;
13979;SDS011;73871;49.900;8.594;2024-01-06T10:06:13;8.90;;;5.80;;
13979;SDS011;73871;49.900;8.594;2024-01-06T10:08:44;10.00;;;6.10;;
13979;SDS011;73871;49.900;8.594;2024-01-06T10:11:14;8.30;;;6.10;;
13979;SDS011;73871;49.900;8.594;2024-01-06T10:13:41;6.83;;;5.27;;
13979;SDS011;73871;49.900;8.594;2024-01-06T10:16:08;8.60;;;6.00;;
13979;SDS011;73871;49.900;8.594;2024-01-06T10:18:35;8.73;;;5.43;;
13979;SDS011;73871;49.900;8.594;2024-01-06T10:21:03;9.43;;;6.40;;
13979;SDS011;73871;49.900;8.594;2024-01-06T10:23:32;6.73;;;5.30;;
13979;SDS011;73871;49.900;8.594;2024-01-06T10:25:59;8.73;;;5.83;;
13979;SDS011;73871;49.900;8.594;2024-01-06T10:28:30;7.40;;;5.53;;
13979;SDS011;73871;49.900;8.594;2024-01-06T10:30:57;6.53;;;5.47;;
13979;SDS011;73871;49.900;8.594;2024-01-06T10:33:25;7.17;;;5.30;;
13979;SDS011;73871;49.900;8.594;2024-01-06T10:35:53;7.30;;;5.37;;
13979;SDS011;73871;49.900;8.594;2024-01-06T10:38:22;9.77;;;5.70;;
13979;SDS011;73871;49.900;8.594;2024-01-06T10:40:58;8.90;;;5.50;;
13979;SDS011;73871;49.900;8.594;2024-01-06T10:43:26;8.77;;;5.60;;
13979;SDS011;73871;49.900;8.594;2024-01-06T10:46:00;7.10;;;5.53;;
13979;SDS011;73871;49.900;8.594;2024-01-06T10:48:31;8.73;;;5.93;;
13979;SDS011;73871;49.900;8.594;2024-01-06T10:51:00;9.83;;;5.53;;
13979;SDS011;73871;49.900;8.594;2024-01-06T10:53:28;8.97;;;5.77;;
13979;SDS011;73871;49.900;8.594;2024-01-06T10:55:56;9.23;;;5.50;;
13979;SDS011;73871;49.900;8.594;2024-01-06T10:58:24;7.00;;;5.60;;
13979;SDS011;73871;49.900;8.594;2024-01-06T11:00:52;6.43;;;5.67;;
13979;SDS011;73871;49.900;8.594;2024-01-06T11:03:19;9.87;;;5.60;;
13979;SDS011;73871;49.900;8.594;2024-01-06T11:05:46;8.77;;;5.80;;
13979;SDS011;73871;49.900;8.594;2024-01-06T11:08:15;9.30;;;6.30;;
13979;SDS011;73871;49.900;8.594;2024-01-06T11:10:44;6.80;;;5.17;;
13979;SDS011;73871;49.900;8.594;2024-01-06T11:13:12;9.03;;;5.50;;
13979;SDS011;73871;49.900;8.594;2024-01-06T11:15:47;6.97;;;5.20;;
13979;SDS011;73871;49.900;8.594;2024-01-06T11:18:30;7.23;;;5.10;;
13979;SDS011;73871;49.900;8.594;2024-01-06T11:23:45;6.37;;;5.77;;
13979;SDS011;73871;49.900;8.594;2024-01-06T11:26:13;8.13;;;6.03;;
13979;SDS011;73871;49.900;8.594;2024-01-06T11:28:44;8.43;;;5.57;;
13979;SDS011;73871;49.900;8.594;2024-01-06T11:31:12;8.10;;;6.03;;
13979;SDS011;73871;49.900;8.594;2024-01-06T11:33:43;8.50;;;6.40;;
13979;SDS011;73871;49.900;8.594;2024-01-06T11:36:10;6.17;;;5.30;;
13979;SDS011;73871;49.900;8.594;2024-01-06T11:38:37;9.27;;;5.67;;
13979;SDS011;73871;49.900;8.594;2024-01-06T11:41:08;6.47;;;5.00;;
13979;SDS011;73871;49.900;8.594;2024-01-06T11:43:55;6.97;;;4.50;;
13979;SDS011;73871;49.900;8.594;2024-01-06T11:46:21;9.17;;;5.40;;
13979;SDS011;73871;49.900;8.594;2024-01-06T11:48:48;6.83;;;5.37;;
13979;SDS011;73871;49.900;8.594;2024-01-06T11:51:18;9.40;;;6.10;;
13979;SDS011;73871;49.900;8.594;2024-01-06T11:53:45;5.13;;;4.63;;
13979;SDS011;73871;49.900;8.594;2024-01-06T11:56:12;7.77;;;4.63;;
13979;SDS011;73871;49.900;8.594;2024-01-06T11:58:42;6.33;;;4.97;;
13979;SDS011;73871;49.900;8.594;2024-01-06T12:01:11;6.20;;;5.30;;
13979;SDS011;73871;49.900;8.594;2024-01-06T12:03:38;6.77;;;5.80;;
13979;SDS011;73871;49.900;8.594;2024-01-06T12:06:05;9.60;;;6.00;;
13979;SDS011;73871;49.900;8.594;2024-01-06T12:08:32;6.93;;;5.47;;
13979;SDS011;73871;49.900;8.594;2024-01-06T12:11:02;6.17;;;5.17;;
13979;SDS011;73871;49.900;8.594;2024-01-06T12:13:30;7.23;;;5.47;;
13979;SDS011;73871;49.900;8.594;2024-01-06T12:15:57;8.97;;;6.27;;
13979;SDS011;73871;49.900;8.594;2024-01-06T12:18:24;6.23;;;5.13;;
13979;SDS011;73871;49.900;8.594;2024-01-06T12:20:52;7.20;;;5.80;;
13979;SDS011;73871;49.900;8.594;2024-01-06T12:23:28;8.53;;;6.40;;
13979;SDS011;73871;49.900;8.594;2024-01-06T12:25:55;6.10;;;5.50;;
13979;SDS011;73871;49.900;8.594;2024-01-06T12:28:22;12.13;;;6.07;;
13979;SDS011;73871;49.900;8.594;2024-01-06T12:30:49;8.60;;;6.20;;
13979;SDS011;73871;49.900;8.594;2024-01-06T12:33:16;9.67;;;6.73;;
13979;SDS011;73871;49.900;8.594;2024-01-06T12:35:43;8.17;;;6.07;;
13979;SDS011;73871;49.900;8.594;2024-01-06T12:38:10;10.83;;;5.90;;
13979;SDS011;73871;49.900;8.594;2024-01-06T12:40:37;12.30;;;5.93;;
13979;SDS011;73871;49.900;8.594;2024-01-06T12:43:04;9.73;;;5.53;;
13979;SDS011;73871;49.900;8.594;2024-01-06T12:45:31;9.90;;;6.13;;
13979;SDS011;73871;49.900;8.594;2024-01-06T12:47:58;9.37;;;6.20;;
13979;SDS011;73871;49.900;8.594;2024-01-06T12:50:25;11.10;;;6.37;;
13979;SDS011;73871;49.900;8.594;2024-01-06T12:52:52;9.07;;;6.00;;
13979;SDS011;73871;49.900;8.594;2024-01-06T12:55:19;8.73;;;6.37;;
13979;SDS011;73871;49.900;8.594;2024-01-06T12:57:45;6.83;;;6.13;;
13979;SDS011;73871;49.900;8.594;2024-01-06T13:00:12;7.97;;;6.30;;
13979;SDS011;73871;49.900;8.594;2024-01-06T13:02:40;7.33;;;6.40;;
13979;SDS011;73871;49.900;8.594;2024-01-06T13:05:07;8.23;;;6.10;;
13979;SDS011;73871;49.900;8.594;2024-01-06T13:07:35;10.57;;;7.13;;
13979;SDS011;73871;49.900;8.594;2024-01-06T13:10:02;8.13;;;6.47;;
13979;SDS011;73871;49.900;8.594;2024-01-06T13:12:30;9.43;;;6.77;;
13979;SDS011;73871;49.900;8.594;2024-01-06T13:14:56;6.80;;;6.17;;
13979;SDS011;73871;49.900;8.594;2024-01-06T13:17:24;8.43;;;6.60;;
13979;SDS011;73871;49.900;8.594;2024-01-06T13:19:51;8.93;;;6.47;;
13979;SDS011;73871;49.900;8.594;2024-01-06T13:22:18;9.50;;;6.40;;
13979;SDS011;73871;49.900;8.594;2024-01-06T13:24:47;9.23;;;7.13;;
13979;SDS011;73871;49.900;8.594;2024-01-06T13:27:19;10.53;;;7.27;;
13979;SDS011;73871;49.900;8.594;2024-01-06T13:29:46;7.40;;;6.70;;
13979;SDS011;73871;49.900;8.594;2024-01-06T13:32:12;9.13;;;6.80;;
13979;SDS011;73871;49.900;8.594;2024-01-06T13:34:41;9.27;;;6.53;;
13979;SDS011;73871;49.900;8.594;2024-01-06T13:37:08;9.23;;;6.77;;
13979;SDS011;73871;49.900;8.594;2024-01-06T13:39:35;9.37;;;6.83;;
13979;SDS011;73871;49.900;8.594;2024-01-06T13:42:02;9.50;;;7.30;;
13979;SDS011;73871;49.900;8.594;2024-01-06T13:44:32;11.50;;;7.40;;
13979;SDS011;73871;49.900;8.594;2024-01-06T13:47:00;9.33;;;7.03;;
13979;SDS011;73871;49.900;8.594;2024-01-06T13:49:26;10.53;;;7.60;;
13979;SDS011;73871;49.900;8.594;2024-01-06T13:51:54;9.63;;;7.40;;
13979;SDS011;73871;49.900;8.594;2024-01-06T13:54:21;11.77;;;7.40;;
13979;SDS011;73871;49.900;8.594;2024-01-06T13:56:48;8.27;;;7.10;;
13979;SDS011;73871;49.900;8.594;2024-01-06T13:59:15;10.80;;;7.47;;
13979;SDS011;73871;49.900;8.594;2024-01-06T14:01:43;11.13;;;7.63;;
13979;SDS011;73871;49.900;8.594;2024-01-06T14:04:10;8.00;;;7.17;;
13979;SDS011;73871;49.900;8.594;2024-01-06T14:06:36;9.67;;;6.93;;
13979;SDS011;73871;49.900;8.594;2024-01-06T14:09:06;10.37;;;7.27;;
13979;SDS011;73871;49.900;8.594;2024-01-06T14:11:32;12.20;;;7.17;;
13979;SDS011;73871;49.900;8.594;2024-01-06T14:14:00;8.33;;;7.30;;
13979;SDS011;73871;49.900;8.594;2024-01-06T14:16:27;8.90;;;7.77;;
13979;SDS011;73871;49.900;8.594;2024-01-06T14:18:54;8.60;;;6.93;;
13979;SDS011;73871;49.900;8.594;2024-01-06T14:21:22;11.60;;;7.23;;
13979;SDS011;73871;49.900;8.594;2024-01-06T14:23:49;8.70;;;7.20;;
13979;SDS011;73871;49.900;8.594;2024-01-06T14:26:16;10.60;;;8.10;;
13979;SDS011;73871;49.900;8.594;2024-01-06T14:28:46;10.37;;;8.30;;
13979;SDS011;73871;49.900;8.594;2024-01-06T14:31:14;8.20;;;6.83;;
13979;SDS011;73871;49.900;8.594;2024-01-06T14:33:40;9.97;;;7.27;;
13979;SDS011;73871;49.900;8.594;2024-01-06T14:36:07;8.87;;;7.43;;
13979;SDS011;73871;49.900;8.594;2024-01-06T14:38:34;11.00;;;7.53;;
13979;SDS011;73871;49.900;8.594;2024-01-06T14:41:01;13.27;;;7.77;;
13979;SDS011;73871;49.900;8.594;2024-01-06T14:43:28;8.10;;;7.30;;
13979;SDS011;73871;49.900;8.594;2024-01-06T14:45:55;9.70;;;7.60;;
13979;SDS011;73871;49.900;8.594;2024-01-06T14:48:22;10.63;;;7.63;;
13979;SDS011;73871;49.900;8.594;2024-01-06T14:50:49;10.13;;;8.23;;